sensor_id;sensor_type;location;lat;lon;timestamp;pressure;altitude;pressure_sealevel;temperature;humidity
64064;BME280;50314;50.618;10.642;2023-06-22T00:00:49;97004.09;;;25.49;26.59
64064;BME280;50314;50.618;10.642;2023-06-22T00:03:16;97001.63;;;25.47;26.76
64064;BME280;50314;50.618;10.642;2023-06-22T00:05:42;96993.53;;;25.47;26.66
64064;BME280;50314;50.618;10.642;2023-06-22T00:08:07;96995.41;;;25.47;26.53
64064;BME280;50314;50.618;10.642;2023-06-22T00:10:33;96995.59;;;25.45;26.70
64064;BME280;50314;50.618;10.642;2023-06-22T00:12:58;96992.88;;;25.45;26.68
64064;BME280;50314;50.618;10.642;2023-06-22T00:15:24;96993.09;;;25.44;26.77
64064;BME280;50314;50.618;10.642;2023-06-22T00:17:50;96987.06;;;25.42;26.71
64064;BME280;50314;50.618;10.642;2023-06-22T00:20:16;96984.38;;;25.42;26.45
64064;BME280;50314;50.618;10.642;2023-06-22T00:22:44;96968.41;;;25.40;26.63
64064;BME280;50314;50.618;10.642;2023-06-22T00:25:09;96968.59;;;25.39;26.67
64064;BME280;50314;50.618;10.642;2023-06-22T00:27:36;96970.47;;;25.38;26.49
64064;BME280;50314;50.618;10.642;2023-06-22T00:30:02;96966.13;;;25.37;26.71
64064;BME280;50314;50.618;10.642;2023-06-22T00:32:27;96965.47;;;25.35;26.82
64064;BME280;50314;50.618;10.642;2023-06-22T00:34:53;96953.03;;;25.34;26.60
64064;BME280;50314;50.618;10.642;2023-06-22T00:37:18;96950.56;;;25.33;26.58
64064;BME280;50314;50.618;10.642;2023-06-22T00:39:44;96950.56;;;25.33;26.58
64064;BME280;50314;50.618;10.642;2023-06-22T00:42:10;96952.41;;;25.32;26.84
64064;BME280;50314;50.618;10.642;2023-06-22T00:44:36;96953.84;;;25.28;26.83
64064;BME280;50314;50.618;10.642;2023-06-22T00:47:02;96964.63;;;25.28;26.83
64064;BME280;50314;50.618;10.642;2023-06-22T00:49:28;96970.84;;;25.28;26.66
64064;BME280;50314;50.618;10.642;2023-06-22T00:51:54;96974.56;;;25.27;26.77
64064;BME280;50314;50.618;10.642;2023-06-22T00:54:20;96972.91;;;25.26;26.77
64064;BME280;50314;50.618;10.642;2023-06-22T00:56:56;96975.38;;;25.21;26.86
64064;BME280;50314;50.618;10.642;2023-06-22T00:59:23;96973.31;;;25.23;26.78
64064;BME280;50314;50.618;10.642;2023-06-22T01:01:49;96960.88;;;25.22;26.87
64064;BME280;50314;50.618;10.642;2023-06-22T01:04:15;96959.19;;;25.21;26.86
64064;BME280;50314;50.618;10.642;2023-06-22T01:07:06;96961.03;;;25.14;26.97
64064;BME280;50314;50.618;10.642;2023-06-22T01:09:40;96948.00;;;25.18;26.73
64064;BME280;50314;50.618;10.642;2023-06-22T01:12:10;96932.66;;;25.18;26.73
64064;BME280;50314;50.618;10.642;2023-06-22T01:14:43;96936.38;;;25.17;26.73
64064;BME280;50314;50.618;10.642;2023-06-22T01:17:15;96932.22;;;25.15;26.83
64064;BME280;50314;50.618;10.642;2023-06-22T01:19:46;96935.97;;;25.14;26.82
64064;BME280;50314;50.618;10.642;2023-06-22T01:22:15;96937.59;;;25.15;26.87
64064;BME280;50314;50.618;10.642;2023-06-22T01:24:51;96940.91;;;25.10;26.92
64064;BME280;50314;50.618;10.642;2023-06-22T01:27:31;96923.09;;;25.09;27.04
64064;BME280;50314;50.618;10.642;2023-06-22T01:29:59;96905.66;;;25.12;26.61
64064;BME280;50314;50.618;10.642;2023-06-22T01:32:30;96905.25;;;25.08;27.06
64064;BME280;50314;50.618;10.642;2023-06-22T01:34:58;96909.63;;;25.09;26.83
64064;BME280;50314;50.618;10.642;2023-06-22T01:37:25;96897.16;;;25.08;26.77
64064;BME280;50314;50.618;10.642;2023-06-22T01:39:52;96890.94;;;25.07;26.92
64064;BME280;50314;50.618;10.642;2023-06-22T01:42:19;96890.13;;;25.07;26.99
64064;BME280;50314;50.618;10.642;2023-06-22T01:44:45;96886.78;;;25.05;26.88
64064;BME280;50314;50.618;10.642;2023-06-22T01:47:11;96872.69;;;25.03;26.93
64064;BME280;50314;50.618;10.642;2023-06-22T01:49:40;96871.66;;;25.04;26.92
64064;BME280;50314;50.618;10.642;2023-06-22T01:52:06;96886.16;;;25.03;27.04
64064;BME280;50314;50.618;10.642;2023-06-22T01:54:32;96881.78;;;25.02;26.86
64064;BME280;50314;50.618;10.642;2023-06-22T01:56:58;96876.63;;;25.00;26.91
64064;BME280;50314;50.618;10.642;2023-06-22T01:59:37;96887.97;;;24.96;27.00
64064;BME280;50314;50.618;10.642;2023-06-22T02:02:10;96889.63;;;24.97;27.15
64064;BME280;50314;50.618;10.642;2023-06-22T02:05:03;96885.03;;;24.91;27.13
64064;BME280;50314;50.618;10.642;2023-06-22T02:07:33;96885.28;;;24.96;27.03
64064;BME280;50314;50.618;10.642;2023-06-22T02:09:59;96886.94;;;24.97;26.82
64064;BME280;50314;50.618;10.642;2023-06-22T02:12:27;96889.81;;;24.95;27.09
64064;BME280;50314;50.618;10.642;2023-06-22T02:14:54;96901.44;;;24.96;27.01
64064;BME280;50314;50.618;10.642;2023-06-22T02:17:20;96925.88;;;24.94;27.14
64064;BME280;50314;50.618;10.642;2023-06-22T02:19:46;96948.47;;;24.93;27.12
64064;BME280;50314;50.618;10.642;2023-06-22T02:22:11;96948.47;;;24.93;26.92
64064;BME280;50314;50.618;10.642;2023-06-22T02:24:40;96952.00;;;24.94;27.04
64064;BME280;50314;50.618;10.642;2023-06-22T02:27:05;96955.72;;;24.93;26.95
64064;BME280;50314;50.618;10.642;2023-06-22T02:29:32;96963.16;;;24.91;27.12
64064;BME280;50314;50.618;10.642;2023-06-22T02:31:58;96976.63;;;24.91;27.04
64064;BME280;50314;50.618;10.642;2023-06-22T02:34:24;96977.66;;;24.90;27.09
64064;BME280;50314;50.618;10.642;2023-06-22T02:36:50;96986.53;;;24.83;27.20
64064;BME280;50314;50.618;10.642;2023-06-22T02:39:23;96996.28;;;24.84;27.26
64064;BME280;50314;50.618;10.642;2023-06-22T02:41:50;97010.38;;;24.87;27.10
64064;BME280;50314;50.618;10.642;2023-06-22T02:44:16;97027.31;;;24.80;27.06
64064;BME280;50314;50.618;10.642;2023-06-22T02:46:41;97041.66;;;24.88;27.13
64064;BME280;50314;50.618;10.642;2023-06-22T02:49:07;97061.75;;;24.85;26.99
64064;BME280;50314;50.618;10.642;2023-06-22T02:51:33;97082.47;;;24.84;27.06
64064;BME280;50314;50.618;10.642;2023-06-22T02:53:59;97096.97;;;24.83;27.06
64064;BME280;50314;50.618;10.642;2023-06-22T02:56:25;97106.91;;;24.83;27.23
64064;BME280;50314;50.618;10.642;2023-06-22T02:58:53;97108.13;;;24.80;27.16
64064;BME280;50314;50.618;10.642;2023-06-22T03:01:18;97109.78;;;24.81;27.26
64064;BME280;50314;50.618;10.642;2023-06-22T03:03:49;97117.25;;;24.79;27.25
64064;BME280;50314;50.618;10.642;2023-06-22T03:06:14;97092.81;;;24.81;27.12
64064;BME280;50314;50.618;10.642;2023-06-22T03:08:40;97081.41;;;24.79;27.02
64064;BME280;50314;50.618;10.642;2023-06-22T03:11:07;97073.31;;;24.79;27.08
64064;BME280;50314;50.618;10.642;2023-06-22T03:13:33;97080.53;;;24.78;27.29
64064;BME280;50314;50.618;10.642;2023-06-22T03:15:58;97091.31;;;24.78;27.07
64064;BME280;50314;50.618;10.642;2023-06-22T03:18:24;97087.78;;;24.78;27.08
64064;BME280;50314;50.618;10.642;2023-06-22T03:20:49;97081.59;;;24.77;27.20
64064;BME280;50314;50.618;10.642;2023-06-22T03:23:15;97065.41;;;24.77;27.25
64064;BME280;50314;50.618;10.642;2023-06-22T03:25:41;97016.13;;;24.77;26.93
64064;BME280;50314;50.618;10.642;2023-06-22T03:28:07;96982.13;;;24.76;27.28
64064;BME280;50314;50.618;10.642;2023-06-22T03:30:32;96972.19;;;24.76;27.02
64064;BME280;50314;50.618;10.642;2023-06-22T03:32:58;96973.03;;;24.77;27.07
64064;BME280;50314;50.618;10.642;2023-06-22T03:35:23;96947.97;;;24.76;27.02
64064;BME280;50314;50.618;10.642;2023-06-22T03:37:48;96945.25;;;24.76;27.04
64064;BME280;50314;50.618;10.642;2023-06-22T03:40:14;96921.03;;;24.76;26.93
64064;BME280;50314;50.618;10.642;2023-06-22T03:42:39;96907.56;;;24.76;27.24
64064;BME280;50314;50.618;10.642;2023-06-22T03:45:05;96898.66;;;24.76;27.10
64064;BME280;50314;50.618;10.642;2023-06-22T03:47:31;96890.75;;;24.74;27.31
64064;BME280;50314;50.618;10.642;2023-06-22T03:49:57;96892.44;;;24.75;27.18
64064;BME280;50314;50.618;10.642;2023-06-22T03:52:22;96882.69;;;24.74;26.81
64064;BME280;50314;50.618;10.642;2023-06-22T03:54:48;96890.75;;;24.74;26.93
64064;BME280;50314;50.618;10.642;2023-06-22T03:57:14;96892.44;;;24.75;27.38
64064;BME280;50314;50.618;10.642;2023-06-22T03:59:39;96893.44;;;24.74;27.09
64064;BME280;50314;50.618;10.642;2023-06-22T04:02:04;96902.34;;;24.75;27.01
64064;BME280;50314;50.618;10.642;2023-06-22T04:04:30;96893.44;;;24.74;27.10
64064;BME280;50314;50.618;10.642;2023-06-22T04:06:55;96878.13;;;24.75;26.93
64064;BME280;50314;50.618;10.642;2023-06-22T04:09:21;96870.03;;;24.75;27.16
64064;BME280;50314;50.618;10.642;2023-06-22T04:11:47;96866.50;;;24.74;27.22
64064;BME280;50314;50.618;10.642;2023-06-22T04:14:12;96869.03;;;24.76;27.00
64064;BME280;50314;50.618;10.642;2023-06-22T04:16:38;96876.28;;;24.75;27.07
64064;BME280;50314;50.618;10.642;2023-06-22T04:19:03;96859.09;;;24.76;27.29
64064;BME280;50314;50.618;10.642;2023-06-22T04:21:29;96855.13;;;24.72;27.37
64064;BME280;50314;50.618;10.642;2023-06-22T04:23:54;96860.28;;;24.67;27.62
64064;BME280;50314;50.618;10.642;2023-06-22T04:26:20;96872.47;;;24.63;27.52
64064;BME280;50314;50.618;10.642;2023-06-22T04:28:47;96870.56;;;24.57;27.72
64064;BME280;50314;50.618;10.642;2023-06-22T04:31:17;96864.75;;;24.53;27.65
64064;BME280;50314;50.618;10.642;2023-06-22T04:33:43;96864.69;;;24.47;27.80
64064;BME280;50314;50.618;10.642;2023-06-22T04:36:08;96856.38;;;24.42;28.10
64064;BME280;50314;50.618;10.642;2023-06-22T04:38:38;96863.16;;;24.37;28.04
64064;BME280;50314;50.618;10.642;2023-06-22T04:41:04;96862.34;;;24.37;28.16
64064;BME280;50314;50.618;10.642;2023-06-22T04:43:29;96867.94;;;24.35;28.66
64064;BME280;50314;50.618;10.642;2023-06-22T04:45:56;96871.63;;;24.34;28.37
64064;BME280;50314;50.618;10.642;2023-06-22T04:48:22;96879.13;;;24.39;28.40
64064;BME280;50314;50.618;10.642;2023-06-22T04:50:47;96877.53;;;24.45;28.33
64064;BME280;50314;50.618;10.642;2023-06-22T04:53:13;96870.06;;;24.47;28.09
64064;BME280;50314;50.618;10.642;2023-06-22T04:55:39;96868.88;;;24.49;27.96
64064;BME280;50314;50.618;10.642;2023-06-22T04:58:10;96857.72;;;24.52;27.81
64064;BME280;50314;50.618;10.642;2023-06-22T05:00:38;96850.25;;;24.54;27.86
64064;BME280;50314;50.618;10.642;2023-06-22T05:03:04;96847.38;;;24.56;27.79
64064;BME280;50314;50.618;10.642;2023-06-22T05:05:31;96845.50;;;24.56;27.97
64064;BME280;50314;50.618;10.642;2023-06-22T05:07:57;96847.00;;;24.59;27.88
64064;BME280;50314;50.618;10.642;2023-06-22T05:10:26;96841.22;;;24.62;28.21
64064;BME280;50314;50.618;10.642;2023-06-22T05:12:51;96844.31;;;24.66;28.19
64064;BME280;50314;50.618;10.642;2023-06-22T05:15:17;96854.50;;;24.70;27.90
64064;BME280;50314;50.618;10.642;2023-06-22T05:17:44;96858.44;;;24.74;27.80
64064;BME280;50314;50.618;10.642;2023-06-22T05:20:11;96864.25;;;24.78;28.02
64064;BME280;50314;50.618;10.642;2023-06-22T05:22:37;96861.16;;;24.81;27.88
64064;BME280;50314;50.618;10.642;2023-06-22T05:25:05;96858.06;;;24.84;27.86
64064;BME280;50314;50.618;10.642;2023-06-22T05:27:31;96859.16;;;24.90;27.74
64064;BME280;50314;50.618;10.642;2023-06-22T05:29:56;96849.84;;;24.92;27.76
64064;BME280;50314;50.618;10.642;2023-06-22T05:32:22;96857.47;;;24.95;27.65
64064;BME280;50314;50.618;10.642;2023-06-22T05:34:47;96866.84;;;24.99;27.85
64064;BME280;50314;50.618;10.642;2023-06-22T05:37:13;96870.38;;;25.00;27.59
64064;BME280;50314;50.618;10.642;2023-06-22T05:39:38;96870.00;;;25.03;27.59
64064;BME280;50314;50.618;10.642;2023-06-22T05:42:07;96866.28;;;25.04;27.70
64064;BME280;50314;50.618;10.642;2023-06-22T05:44:33;96876.66;;;25.07;27.69
64064;BME280;50314;50.618;10.642;2023-06-22T05:46:58;96877.28;;;25.09;27.52
64064;BME280;50314;50.618;10.642;2023-06-22T05:49:24;96877.91;;;25.11;27.48
64064;BME280;50314;50.618;10.642;2023-06-22T05:51:55;96889.31;;;25.13;27.61
64064;BME280;50314;50.618;10.642;2023-06-22T05:54:21;96892.22;;;25.18;27.56
64064;BME280;50314;50.618;10.642;2023-06-22T05:56:47;96901.59;;;25.22;27.63
64064;BME280;50314;50.618;10.642;2023-06-22T05:59:12;96898.47;;;25.25;28.03
64064;BME280;50314;50.618;10.642;2023-06-22T06:01:37;96899.94;;;25.28;28.16
64064;BME280;50314;50.618;10.642;2023-06-22T06:04:05;96894.97;;;25.31;28.67
64064;BME280;50314;50.618;10.642;2023-06-22T06:06:33;96893.50;;;25.36;28.68
64064;BME280;50314;50.618;10.642;2023-06-22T06:09:00;96890.41;;;25.39;28.84
64064;BME280;50314;50.618;10.642;2023-06-22T06:11:25;96887.13;;;25.43;28.95
64064;BME280;50314;50.618;10.642;2023-06-22T06:13:51;96883.00;;;25.47;28.73
64064;BME280;50314;50.618;10.642;2023-06-22T06:16:16;96875.53;;;25.49;29.16
64064;BME280;50314;50.618;10.642;2023-06-22T06:18:42;96874.31;;;25.52;28.88
64064;BME280;50314;50.618;10.642;2023-06-22T06:21:07;96874.13;;;25.53;28.72
64064;BME280;50314;50.618;10.642;2023-06-22T06:23:33;96870.16;;;25.56;28.72
64064;BME280;50314;50.618;10.642;2023-06-22T06:25:58;96877.66;;;25.61;29.11
64064;BME280;50314;50.618;10.642;2023-06-22T06:28:25;96880.78;;;25.64;29.09
64064;BME280;50314;50.618;10.642;2023-06-22T06:30:50;96882.63;;;25.64;28.95
64064;BME280;50314;50.618;10.642;2023-06-22T06:33:17;96880.38;;;25.74;28.56
64064;BME280;50314;50.618;10.642;2023-06-22T06:35:42;96876.00;;;25.79;28.78
64064;BME280;50314;50.618;10.642;2023-06-22T06:38:08;96874.16;;;25.87;28.33
64064;BME280;50314;50.618;10.642;2023-06-22T06:40:33;96866.91;;;25.94;28.53
64064;BME280;50314;50.618;10.642;2023-06-22T06:42:58;96863.19;;;26.01;28.26
64064;BME280;50314;50.618;10.642;2023-06-22T06:45:24;96863.19;;;26.08;28.28
64064;BME280;50314;50.618;10.642;2023-06-22T06:47:51;96861.31;;;26.15;28.20
64064;BME280;50314;50.618;10.642;2023-06-22T06:50:17;96864.00;;;26.22;27.86
64064;BME280;50314;50.618;10.642;2023-06-22T06:52:43;96860.25;;;26.30;28.20
64064;BME280;50314;50.618;10.642;2023-06-22T06:55:09;96853.81;;;26.37;28.07
64064;BME280;50314;50.618;10.642;2023-06-22T06:57:38;96852.13;;;26.43;27.32
64064;BME280;50314;50.618;10.642;2023-06-22T07:00:09;96845.25;;;26.47;27.30
64064;BME280;50314;50.618;10.642;2023-06-22T07:02:44;96843.19;;;26.56;27.12
64064;BME280;50314;50.618;10.642;2023-06-22T07:05:10;96842.97;;;26.57;26.94
64064;BME280;50314;50.618;10.642;2023-06-22T07:07:36;96840.22;;;26.70;26.75
64064;BME280;50314;50.618;10.642;2023-06-22T07:10:02;96838.34;;;26.78;26.92
64064;BME280;50314;50.618;10.642;2023-06-22T07:12:28;96838.09;;;26.86;26.84
64064;BME280;50314;50.618;10.642;2023-06-22T07:14:53;96835.38;;;26.92;26.82
64064;BME280;50314;50.618;10.642;2023-06-22T07:17:19;96835.34;;;26.99;26.51
64064;BME280;50314;50.618;10.642;2023-06-22T07:19:45;96827.22;;;27.06;26.54
64064;BME280;50314;50.618;10.642;2023-06-22T07:22:10;96840.28;;;27.15;26.06
64064;BME280;50314;50.618;10.642;2023-06-22T07:24:36;96824.84;;;27.23;26.51
64064;BME280;50314;50.618;10.642;2023-06-22T07:27:02;96828.97;;;27.32;25.80
64064;BME280;50314;50.618;10.642;2023-06-22T07:29:29;96828.69;;;27.40;26.36
64064;BME280;50314;50.618;10.642;2023-06-22T07:31:54;96829.47;;;27.47;26.17
64064;BME280;50314;50.618;10.642;2023-06-22T07:34:21;96833.81;;;27.55;25.90
64064;BME280;50314;50.618;10.642;2023-06-22T07:36:47;96826.72;;;27.60;25.61
64064;BME280;50314;50.618;10.642;2023-06-22T07:39:13;96826.44;;;27.69;25.38
64064;BME280;50314;50.618;10.642;2023-06-22T07:41:39;96828.88;;;27.77;25.60
64064;BME280;50314;50.618;10.642;2023-06-22T07:44:08;96826.50;;;27.87;25.46
64064;BME280;50314;50.618;10.642;2023-06-22T07:46:33;96819.97;;;27.95;25.31
64064;BME280;50314;50.618;10.642;2023-06-22T07:48:59;96816.81;;;28.04;25.21
64064;BME280;50314;50.618;10.642;2023-06-22T07:51:26;96816.50;;;28.13;25.09
64064;BME280;50314;50.618;10.642;2023-06-22T07:53:51;96815.03;;;28.17;25.30
64064;BME280;50314;50.618;10.642;2023-06-22T07:56:17;96821.03;;;28.19;25.13
64064;BME280;50314;50.618;10.642;2023-06-22T07:58:46;96817.50;;;28.18;25.29
64064;BME280;50314;50.618;10.642;2023-06-22T08:01:14;96820.22;;;28.18;24.99
64064;BME280;50314;50.618;10.642;2023-06-22T08:03:39;96814.78;;;28.18;25.11
64064;BME280;50314;50.618;10.642;2023-06-22T08:06:05;96810.19;;;28.19;25.02
64064;BME280;50314;50.618;10.642;2023-06-22T08:08:31;96802.09;;;28.19;25.41
64064;BME280;50314;50.618;10.642;2023-06-22T08:10:56;96801.06;;;28.20;25.38
64064;BME280;50314;50.618;10.642;2023-06-22T08:13:22;96793.75;;;28.20;25.21
64064;BME280;50314;50.618;10.642;2023-06-22T08:15:47;96791.25;;;28.19;25.13
64064;BME280;50314;50.618;10.642;2023-06-22T08:18:13;96789.38;;;28.19;25.01
64064;BME280;50314;50.618;10.642;2023-06-22T08:20:38;96784.81;;;28.20;24.62
64064;BME280;50314;50.618;10.642;2023-06-22T08:23:03;96788.09;;;28.22;24.73
64064;BME280;50314;50.618;10.642;2023-06-22T08:25:34;96795.19;;;28.23;24.85
64064;BME280;50314;50.618;10.642;2023-06-22T08:28:01;96793.06;;;28.25;24.63
64064;BME280;50314;50.618;10.642;2023-06-22T08:30:26;96797.41;;;28.26;24.99
64064;BME280;50314;50.618;10.642;2023-06-22T08:32:52;96781.78;;;28.28;24.92
64064;BME280;50314;50.618;10.642;2023-06-22T08:35:19;96784.88;;;28.31;24.55
64064;BME280;50314;50.618;10.642;2023-06-22T08:37:45;96777.56;;;28.32;24.85
64064;BME280;50314;50.618;10.642;2023-06-22T08:40:18;96775.94;;;28.31;24.43
64064;BME280;50314;50.618;10.642;2023-06-22T08:42:45;96782.16;;;28.31;24.70
64064;BME280;50314;50.618;10.642;2023-06-22T08:45:11;96781.97;;;28.33;24.35
64064;BME280;50314;50.618;10.642;2023-06-22T08:47:37;96779.00;;;28.34;24.33
64064;BME280;50314;50.618;10.642;2023-06-22T08:50:03;96789.03;;;28.34;24.69
64064;BME280;50314;50.618;10.642;2023-06-22T08:52:29;96778.19;;;28.34;24.36
64064;BME280;50314;50.618;10.642;2023-06-22T08:54:55;96773.34;;;28.36;24.54
64064;BME280;50314;50.618;10.642;2023-06-22T08:57:21;96769.00;;;28.35;24.46
64064;BME280;50314;50.618;10.642;2023-06-22T08:59:46;96775.03;;;28.37;24.40
64064;BME280;50314;50.618;10.642;2023-06-22T09:02:12;96771.25;;;28.38;24.52
64064;BME280;50314;50.618;10.642;2023-06-22T09:04:38;96768.56;;;28.38;24.56
64064;BME280;50314;50.618;10.642;2023-06-22T09:07:03;96767.50;;;28.39;24.32
64064;BME280;50314;50.618;10.642;2023-06-22T09:09:29;96768.09;;;28.41;24.71
64064;BME280;50314;50.618;10.642;2023-06-22T09:11:55;96761.44;;;28.44;24.43
64064;BME280;50314;50.618;10.642;2023-06-22T09:14:20;96768.06;;;28.48;24.04
64064;BME280;50314;50.618;10.642;2023-06-22T09:16:46;96769.94;;;28.47;23.82
64064;BME280;50314;50.618;10.642;2023-06-22T09:19:11;96762.63;;;28.48;24.02
64064;BME280;50314;50.618;10.642;2023-06-22T09:21:37;96761.56;;;28.49;24.24
64064;BME280;50314;50.618;10.642;2023-06-22T09:24:03;96752.63;;;28.48;24.42
64064;BME280;50314;50.618;10.642;2023-06-22T09:26:28;96755.94;;;28.50;24.22
64064;BME280;50314;50.618;10.642;2023-06-22T09:28:54;96747.59;;;28.52;24.31
64064;BME280;50314;50.618;10.642;2023-06-22T09:31:19;96751.13;;;28.52;24.44
64064;BME280;50314;50.618;10.642;2023-06-22T09:33:52;96747.75;;;28.57;24.43
64064;BME280;50314;50.618;10.642;2023-06-22T09:36:18;96755.63;;;28.58;24.29
64064;BME280;50314;50.618;10.642;2023-06-22T09:38:43;96743.50;;;28.61;23.94
64064;BME280;50314;50.618;10.642;2023-06-22T09:41:09;96739.97;;;28.61;23.80
64064;BME280;50314;50.618;10.642;2023-06-22T09:43:34;96739.75;;;28.62;23.98
64064;BME280;50314;50.618;10.642;2023-06-22T12:54:13;96552.41;;;29.47;22.28
64064;BME280;50314;50.618;10.642;2023-06-22T12:56:38;96557.00;;;29.47;22.08
64064;BME280;50314;50.618;10.642;2023-06-22T12:59:04;96552.41;;;29.47;22.18
64064;BME280;50314;50.618;10.642;2023-06-22T13:01:33;96546.97;;;29.47;22.24
64064;BME280;50314;50.618;10.642;2023-06-22T13:03:58;96548.66;;;29.48;22.24
64064;BME280;50314;50.618;10.642;2023-06-22T13:06:25;96542.41;;;29.48;22.17
64064;BME280;50314;50.618;10.642;2023-06-22T13:08:50;96542.41;;;29.48;22.20
64064;BME280;50314;50.618;10.642;2023-06-22T13:11:16;96532.38;;;29.48;22.15
64064;BME280;50314;50.618;10.642;2023-06-22T13:13:41;96527.78;;;29.49;22.12
64064;BME280;50314;50.618;10.642;2023-06-22T13:16:07;96528.59;;;29.49;22.26
64064;BME280;50314;50.618;10.642;2023-06-22T13:18:32;96520.22;;;29.51;22.50
64064;BME280;50314;50.618;10.642;2023-06-22T13:21:01;96518.56;;;29.50;22.26
64064;BME280;50314;50.618;10.642;2023-06-22T13:23:26;96516.66;;;29.50;22.10
64064;BME280;50314;50.618;10.642;2023-06-22T13:25:51;96520.22;;;29.51;22.35
64064;BME280;50314;50.618;10.642;2023-06-22T13:28:17;96512.31;;;29.49;21.97
64064;BME280;50314;50.618;10.642;2023-06-22T13:30:43;96514.22;;;29.49;22.39
64064;BME280;50314;50.618;10.642;2023-06-22T13:33:11;96516.09;;;29.48;22.33
64064;BME280;50314;50.618;10.642;2023-06-22T13:35:36;96509.00;;;29.47;22.28
64064;BME280;50314;50.618;10.642;2023-06-22T13:38:03;96507.38;;;29.46;22.41
64064;BME280;50314;50.618;10.642;2023-06-22T13:40:28;96495.69;;;29.46;22.27
64064;BME280;50314;50.618;10.642;2023-06-22T13:42:54;96492.16;;;29.45;22.12
64064;BME280;50314;50.618;10.642;2023-06-22T13:45:19;96478.00;;;29.43;22.23
64064;BME280;50314;50.618;10.642;2023-06-22T13:47:45;96476.09;;;29.44;22.01
64064;BME280;50314;50.618;10.642;2023-06-22T13:50:11;96466.94;;;29.45;22.13
64064;BME280;50314;50.618;10.642;2023-06-22T13:52:38;96464.44;;;29.43;21.90
64064;BME280;50314;50.618;10.642;2023-06-22T13:55:04;96468.22;;;29.42;22.02
64064;BME280;50314;50.618;10.642;2023-06-22T13:57:30;96461.16;;;29.41;22.13
64064;BME280;50314;50.618;10.642;2023-06-22T13:59:55;96464.09;;;29.40;21.98
64064;BME280;50314;50.618;10.642;2023-06-22T14:02:20;96464.34;;;29.38;21.96
64064;BME280;50314;50.618;10.642;2023-06-22T14:04:46;96455.63;;;29.36;21.84
64064;BME280;50314;50.618;10.642;2023-06-22T14:07:11;96460.19;;;29.36;21.74
64064;BME280;50314;50.618;10.642;2023-06-22T14:09:37;96455.03;;;29.34;21.83
64064;BME280;50314;50.618;10.642;2023-06-22T14:12:04;96455.50;;;29.31;21.82
64064;BME280;50314;50.618;10.642;2023-06-22T14:14:30;96468.22;;;29.31;22.07
64064;BME280;50314;50.618;10.642;2023-06-22T14:16:56;96462.22;;;29.28;22.17
64064;BME280;50314;50.618;10.642;2023-06-22T14:19:21;96463.03;;;29.29;22.39
64064;BME280;50314;50.618;10.642;2023-06-22T14:21:47;96463.03;;;29.29;22.08
64064;BME280;50314;50.618;10.642;2023-06-22T14:24:12;96470.91;;;29.31;21.84
64064;BME280;50314;50.618;10.642;2023-06-22T14:26:37;96457.97;;;29.33;22.04
64064;BME280;50314;50.618;10.642;2023-06-22T14:29:03;96456.06;;;29.33;22.18
64064;BME280;50314;50.618;10.642;2023-06-22T14:31:29;96448.75;;;29.34;21.75
64064;BME280;50314;50.618;10.642;2023-06-22T14:33:54;96442.28;;;29.35;21.98
64064;BME280;50314;50.618;10.642;2023-06-22T14:36:20;96439.56;;;29.35;21.92
64064;BME280;50314;50.618;10.642;2023-06-22T14:38:45;96432.25;;;29.35;21.91
64064;BME280;50314;50.618;10.642;2023-06-22T14:41:11;96434.16;;;29.35;21.98
64064;BME280;50314;50.618;10.642;2023-06-22T14:43:37;96429.53;;;29.35;22.08
64064;BME280;50314;50.618;10.642;2023-06-22T14:46:02;96419.50;;;29.36;21.87
64064;BME280;50314;50.618;10.642;2023-06-22T14:48:28;96401.38;;;29.36;21.97
64064;BME280;50314;50.618;10.642;2023-06-22T14:50:54;96404.91;;;29.37;22.16
64064;BME280;50314;50.618;10.642;2023-06-22T14:53:19;96403.25;;;29.36;22.18
64064;BME280;50314;50.618;10.642;2023-06-22T14:55:45;96403.59;;;29.39;22.05
64064;BME280;50314;50.618;10.642;2023-06-22T14:58:10;96397.38;;;29.39;22.16
64064;BME280;50314;50.618;10.642;2023-06-22T15:00:37;96388.16;;;29.40;22.38
64064;BME280;50314;50.618;10.642;2023-06-22T15:03:04;96388.16;;;29.40;22.20
64064;BME280;50314;50.618;10.642;2023-06-22T15:05:32;96376.47;;;29.39;22.68
64064;BME280;50314;50.618;10.642;2023-06-22T15:07:57;96372.69;;;29.40;22.76
64064;BME280;50314;50.618;10.642;2023-06-22T15:10:23;96367.28;;;29.40;22.64
64064;BME280;50314;50.618;10.642;2023-06-22T15:12:49;96368.34;;;29.39;22.51
64064;BME280;50314;50.618;10.642;2023-06-22T15:15:15;96367.75;;;29.37;22.88
64064;BME280;50314;50.618;10.642;2023-06-22T15:17:40;96373.19;;;29.37;22.97
64064;BME280;50314;50.618;10.642;2023-06-22T15:20:06;96369.06;;;29.35;23.06
64064;BME280;50314;50.618;10.642;2023-06-22T15:22:31;96357.38;;;29.34;23.20
64064;BME280;50314;50.618;10.642;2023-06-22T15:24:57;96363.63;;;29.35;23.29
64064;BME280;50314;50.618;10.642;2023-06-22T15:27:24;96367.38;;;29.34;23.44
64064;BME280;50314;50.618;10.642;2023-06-22T15:29:49;96364.69;;;29.34;23.42
64064;BME280;50314;50.618;10.642;2023-06-22T15:32:15;96369.28;;;29.33;23.52
64064;BME280;50314;50.618;10.642;2023-06-22T15:34:40;96380.13;;;29.33;24.03
64064;BME280;50314;50.618;10.642;2023-06-22T15:37:08;96384.13;;;29.31;23.85
64064;BME280;50314;50.618;10.642;2023-06-22T15:39:33;96377.91;;;29.30;23.54
64064;BME280;50314;50.618;10.642;2023-06-22T15:41:59;96378.38;;;29.27;23.58
64064;BME280;50314;50.618;10.642;2023-06-22T15:44:24;96383.22;;;29.25;23.56
64064;BME280;50314;50.618;10.642;2023-06-22T15:46:50;96385.13;;;29.24;23.92
64064;BME280;50314;50.618;10.642;2023-06-22T15:49:16;96381.81;;;29.22;23.88
64064;BME280;50314;50.618;10.642;2023-06-22T15:51:43;96372.88;;;29.22;23.68
64064;BME280;50314;50.618;10.642;2023-06-22T15:54:09;96369.81;;;29.18;24.01